createdAt,value
2017-05-22T00:00:58.702Z,17.15
2017-05-22T00:02:07.661Z,17.15
2017-05-22T00:03:16.810Z,17.14
2017-05-22T00:04:25.925Z,17.07
2017-05-22T00:05:35.136Z,17.15
2017-05-22T00:06:44.177Z,17.08
2017-05-22T00:07:53.218Z,17.08
2017-05-22T00:09:02.185Z,17.08
2017-05-22T00:10:11.225Z,17.06
2017-05-22T00:11:20.454Z,16.96
2017-05-22T00:12:29.467Z,17.07
2017-05-22T00:13:38.559Z,16.94
2017-05-22T00:14:47.577Z,16.93
2017-05-22T00:15:56.552Z,17.03
2017-05-22T00:17:06.104Z,16.91
2017-05-22T00:18:15.404Z,16.98
2017-05-22T00:19:24.555Z,16.96
2017-05-22T00:20:33.519Z,16.96
2017-05-22T00:21:42.598Z,16.96
2017-05-22T00:22:51.811Z,17.01
2017-05-22T00:24:00.849Z,16.96
2017-05-22T00:25:10.079Z,16.88
2017-05-22T00:26:19.042Z,16.86
2017-05-22T00:27:28.003Z,16.89
2017-05-22T00:28:37.266Z,16.89
2017-05-22T00:29:46.492Z,16.85
2017-05-22T00:30:55.446Z,16.85
2017-05-22T00:32:04.410Z,16.83
2017-05-22T00:33:13.372Z,16.86
2017-05-22T00:34:22.588Z,16.89
2017-05-22T00:35:31.551Z,16.86
2017-05-22T00:36:41.492Z,16.79
2017-05-22T00:37:50.469Z,16.81
2017-05-22T00:38:59.432Z,16.81
2017-05-22T00:40:08.640Z,16.75
2017-05-22T00:41:17.598Z,16.79
2017-05-22T00:42:26.554Z,16.76
2017-05-22T00:43:35.521Z,16.79
2017-05-22T00:44:44.486Z,16.78
2017-05-22T00:45:53.699Z,16.82
2017-05-22T00:47:02.659Z,16.7
2017-05-22T00:48:11.629Z,16.81
2017-05-22T00:49:20.614Z,16.79
2017-05-22T00:50:29.575Z,16.81
2017-05-22T00:51:38.796Z,16.79
2017-05-22T00:52:47.760Z,16.79
2017-05-22T00:53:56.725Z,16.76
2017-05-22T00:55:05.686Z,16.82
2017-05-22T00:56:14.643Z,16.81
2017-05-22T00:57:24.187Z,16.82
2017-05-22T00:58:33.150Z,16.85
2017-05-22T00:59:42.117Z,16.86
2017-05-22T01:00:51.086Z,16.86
2017-05-22T01:02:00.041Z,16.86
2017-05-22T01:03:09.251Z,16.88
2017-05-22T01:04:18.535Z,16.86
2017-05-22T01:05:27.492Z,16.83
2017-05-22T01:06:36.452Z,16.88
2017-05-22T01:07:45.413Z,16.83
2017-05-22T01:08:54.630Z,16.85
2017-05-22T01:10:03.596Z,16.85
2017-05-22T01:11:12.556Z,16.89
2017-05-22T01:12:21.533Z,16.83
2017-05-22T01:13:30.501Z,16.85
2017-05-22T01:14:39.706Z,16.81
2017-05-22T01:15:48.677Z,16.82
2017-05-22T01:16:57.637Z,16.81
2017-05-22T01:18:06.685Z,16.81
2017-05-22T01:19:15.739Z,16.81
2017-05-22T01:20:24.947Z,16.75
2017-05-22T01:21:33.904Z,16.78
2017-05-22T01:22:42.868Z,16.79
2017-05-22T01:23:51.830Z,16.78
2017-05-22T01:25:00.903Z,16.73
2017-05-22T01:26:10.112Z,16.81
2017-05-22T01:27:19.071Z,16.85
2017-05-22T01:28:28.042Z,16.81
2017-05-22T01:29:37.003Z,16.7
2017-05-22T01:30:45.966Z,16.75
2017-05-22T01:31:55.177Z,16.68
2017-05-22T01:33:04.136Z,16.68
2017-05-22T01:34:13.096Z,16.71
2017-05-22T01:35:22.058Z,16.7
2017-05-22T01:36:31.018Z,16.75
2017-05-22T01:37:40.317Z,16.71
2017-05-22T01:38:49.314Z,16.66
2017-05-22T01:39:58.324Z,16.6
2017-05-22T01:41:07.284Z,16.68
2017-05-22T01:42:16.251Z,16.73
2017-05-22T01:43:25.465Z,16.63
2017-05-22T01:44:34.424Z,16.66
2017-05-22T01:45:43.384Z,16.64
2017-05-22T01:46:52.348Z,16.73
2017-05-22T01:48:01.313Z,16.61
2017-05-22T01:49:10.522Z,16.68
2017-05-22T01:50:19.480Z,16.63
2017-05-22T01:51:29.135Z,16.7
2017-05-22T01:52:38.492Z,16.61
2017-05-22T01:53:48.165Z,16.64
2017-05-22T01:54:57.530Z,16.6
2017-05-22T01:56:06.498Z,16.58
2017-05-22T01:57:15.454Z,16.52
2017-05-22T01:58:24.416Z,16.57
2017-05-22T01:59:33.384Z,16.6
2017-05-22T02:00:42.596Z,16.58
2017-05-22T02:01:51.613Z,16.6
2017-05-22T02:03:00.576Z,16.57
2017-05-22T02:04:09.542Z,16.58
2017-05-22T02:05:18.505Z,16.53
2017-05-22T02:06:27.714Z,16.45
2017-05-22T02:07:36.671Z,16.57
2017-05-22T02:08:45.638Z,16.48
2017-05-22T02:09:54.606Z,16.49
2017-05-22T02:11:03.623Z,16.49
2017-05-22T02:12:12.834Z,16.42
2017-05-22T02:13:21.791Z,16.45
2017-05-22T02:14:30.754Z,16.52
2017-05-22T02:15:39.712Z,16.57
2017-05-22T02:16:48.672Z,16.48
2017-05-22T02:17:57.885Z,16.49
2017-05-22T02:19:06.859Z,16.46
2017-05-22T02:20:15.822Z,16.46
2017-05-22T02:21:24.783Z,16.48
2017-05-22T02:22:33.741Z,16.46
2017-05-22T02:23:42.959Z,16.45
2017-05-22T02:24:52.012Z,16.45
2017-05-22T02:26:00.974Z,16.43
2017-05-22T02:27:09.946Z,16.46
2017-05-22T02:28:18.909Z,16.42
2017-05-22T02:29:28.184Z,16.38
2017-05-22T02:30:37.242Z,16.35
2017-05-22T02:31:46.205Z,16.39
2017-05-22T02:32:55.161Z,16.3
2017-05-22T02:34:04.123Z,16.31
2017-05-22T02:35:13.334Z,16.33
2017-05-22T02:36:22.295Z,16.3
2017-05-22T02:37:31.253Z,16.23
2017-05-22T02:38:40.217Z,16.27
2017-05-22T02:39:49.175Z,16.3
2017-05-22T02:40:58.448Z,16.24
2017-05-22T02:42:07.402Z,16.24
2017-05-22T02:43:16.361Z,16.25
2017-05-22T02:44:25.324Z,16.3
2017-05-22T02:45:34.376Z,16.25
2017-05-22T02:46:43.584Z,16.21
2017-05-22T02:47:52.558Z,16.25
2017-05-22T02:49:01.522Z,16.15
2017-05-22T02:50:10.476Z,16.17
2017-05-22T02:51:19.437Z,16.21
2017-05-22T02:52:28.645Z,16.21
2017-05-22T02:53:37.606Z,16.15
2017-05-22T02:54:46.579Z,16.23
2017-05-22T02:55:55.540Z,16.17
2017-05-22T02:57:04.498Z,16.17
2017-05-22T02:58:13.710Z,16.17
2017-05-22T02:59:22.675Z,16.12
2017-05-22T03:00:31.638Z,16.17
2017-05-22T03:01:40.609Z,16.2
2017-05-22T03:02:49.566Z,16.09
2017-05-22T03:03:58.778Z,16.08
2017-05-22T03:05:07.767Z,16.11
2017-05-22T03:06:16.723Z,16.09
2017-05-22T03:07:25.682Z,16.17
2017-05-22T03:08:34.645Z,16.2
2017-05-22T03:09:43.870Z,16.12
2017-05-22T03:10:52.838Z,16.17
2017-05-22T03:12:01.801Z,16.05
2017-05-22T03:13:10.762Z,16.15
2017-05-22T03:14:19.723Z,16.05
2017-05-22T03:15:28.933Z,16.15
2017-05-22T03:16:37.980Z,16.12
2017-05-22T03:17:46.937Z,16.21
2017-05-22T03:18:55.902Z,16.15
2017-05-22T03:20:05.185Z,16.05
2017-05-22T03:21:14.394Z,16.07
2017-05-22T03:22:23.355Z,16.08
2017-05-22T03:23:32.321Z,16.12
2017-05-22T03:24:41.285Z,16.17
2017-05-22T03:25:50.245Z,16.15
2017-05-22T03:26:59.455Z,16.08
2017-05-22T03:28:08.415Z,16.24
2017-05-22T03:29:17.401Z,16.17
2017-05-22T03:30:26.370Z,16.14
2017-05-22T03:31:35.989Z,16.08
2017-05-22T03:32:45.229Z,16.12
2017-05-22T03:33:54.187Z,16.11
2017-05-22T03:35:03.252Z,16.12
2017-05-22T03:36:12.210Z,16.09
2017-05-22T03:37:21.186Z,16.09
2017-05-22T03:38:30.492Z,16.01
2017-05-22T03:39:39.455Z,16.02
2017-05-22T03:40:48.418Z,16.02
2017-05-22T03:41:57.454Z,15.94
2017-05-22T03:43:06.496Z,16
2017-05-22T03:44:15.757Z,16.07
2017-05-22T03:45:24.719Z,15.96
2017-05-22T03:46:33.679Z,16
2017-05-22T03:47:42.638Z,15.97
2017-05-22T03:48:51.597Z,15.97
2017-05-22T03:50:00.809Z,15.9
2017-05-22T03:51:09.769Z,15.9
2017-05-22T03:52:18.820Z,15.96
2017-05-22T03:53:27.779Z,16.02
2017-05-22T03:54:36.743Z,16.01
2017-05-22T03:55:45.949Z,16
2017-05-22T03:56:54.904Z,15.87
2017-05-22T03:58:03.869Z,16
2017-05-22T03:59:12.829Z,15.97
2017-05-22T04:00:21.788Z,15.93
2017-05-22T04:01:31.000Z,15.87
2017-05-22T04:02:39.970Z,15.92
2017-05-22T04:03:48.942Z,15.9
2017-05-22T04:04:57.910Z,15.92
2017-05-22T04:06:06.886Z,15.89
2017-05-22T04:07:16.281Z,15.94
2017-05-22T04:08:25.239Z,15.97
2017-05-22T04:09:34.529Z,15.97
2017-05-22T04:10:43.531Z,15.89
2017-05-22T04:11:52.493Z,15.94
2017-05-22T04:13:01.717Z,15.87
2017-05-22T04:14:10.675Z,15.87
2017-05-22T04:15:19.701Z,15.94
2017-05-22T04:16:28.662Z,15.94
2017-05-22T04:17:37.619Z,15.86
2017-05-22T04:18:46.885Z,15.84
2017-05-22T04:19:55.845Z,15.9
2017-05-22T04:21:04.888Z,15.9
2017-05-22T04:22:13.849Z,15.93
2017-05-22T04:23:22.812Z,15.92
2017-05-22T04:24:32.068Z,15.87
2017-05-22T04:25:41.023Z,15.9
2017-05-22T04:26:49.983Z,15.9
2017-05-22T04:27:58.939Z,15.92
2017-05-22T04:29:07.899Z,15.89
2017-05-22T04:30:17.113Z,15.84
2017-05-22T04:31:26.064Z,15.87
2017-05-22T04:32:35.017Z,15.96
2017-05-22T04:33:43.979Z,15.94
2017-05-22T04:34:52.989Z,15.86
2017-05-22T04:36:02.275Z,15.93
2017-05-22T04:37:11.252Z,15.96
2017-05-22T04:38:20.218Z,15.94
2017-05-22T04:39:29.178Z,15.93
2017-05-22T04:40:38.192Z,16.04
2017-05-22T04:41:47.403Z,15.96
2017-05-22T04:42:56.749Z,16
2017-05-22T04:44:05.712Z,15.89
2017-05-22T04:45:14.676Z,15.93
2017-05-22T04:46:23.636Z,15.93
2017-05-22T04:47:32.847Z,16.02
2017-05-22T04:48:41.807Z,16.05
2017-05-22T04:49:50.770Z,16.07
2017-05-22T04:50:59.739Z,16.12
2017-05-22T04:52:08.701Z,16.2
2017-05-22T04:53:17.912Z,16.14
2017-05-22T04:54:26.874Z,16.11
2017-05-22T04:55:35.830Z,16.08
2017-05-22T04:56:44.786Z,16.15
2017-05-22T04:57:53.753Z,16.12
2017-05-22T04:59:02.966Z,16.2
2017-05-22T05:00:11.928Z,16.25
2017-05-22T05:01:20.889Z,16.21
2017-05-22T05:02:29.844Z,16.33
2017-05-22T05:03:38.809Z,16.34
2017-05-22T05:04:48.028Z,16.33
2017-05-22T05:05:56.993Z,16.39
2017-05-22T05:07:05.956Z,16.49
2017-05-22T05:08:15.330Z,16.5
2017-05-22T05:09:24.285Z,16.56
2017-05-22T05:10:33.494Z,16.53
2017-05-22T05:11:42.457Z,16.56
2017-05-22T05:12:51.416Z,16.58
2017-05-22T05:14:00.371Z,16.61
2017-05-22T05:15:09.338Z,16.56
2017-05-22T05:16:18.610Z,16.66
2017-05-22T05:17:27.573Z,16.76
2017-05-22T05:18:36.540Z,16.73
2017-05-22T05:19:45.506Z,16.76
2017-05-22T05:20:54.470Z,16.75
2017-05-22T05:22:03.682Z,16.78
2017-05-22T05:23:12.658Z,16.88
2017-05-22T05:24:21.617Z,16.85
2017-05-22T05:25:30.630Z,16.88
2017-05-22T05:26:39.597Z,16.89
2017-05-22T05:27:48.857Z,16.85
2017-05-22T05:28:57.822Z,16.97
2017-05-22T05:30:06.870Z,17
2017-05-22T05:31:16.164Z,16.97
2017-05-22T05:32:25.464Z,17
2017-05-22T05:33:34.672Z,17.04
2017-05-22T05:34:43.638Z,17.12
2017-05-22T05:35:52.598Z,17.14
2017-05-22T05:37:01.551Z,17.16
2017-05-22T05:38:10.511Z,17.18
2017-05-22T05:39:19.725Z,17.16
2017-05-22T05:40:28.680Z,17.19
2017-05-22T05:41:37.643Z,17.3
2017-05-22T05:42:46.608Z,17.25
2017-05-22T05:43:55.718Z,17.25
2017-05-22T05:45:04.937Z,17.31
2017-05-22T05:46:13.898Z,17.26
2017-05-22T05:47:22.854Z,17.38
2017-05-22T05:48:31.814Z,17.44
2017-05-22T05:49:40.793Z,17.4
2017-05-22T05:50:50.089Z,17.52
2017-05-22T05:51:59.050Z,17.51
2017-05-22T05:53:08.007Z,17.56
2017-05-22T05:54:16.976Z,17.63
2017-05-22T05:55:25.938Z,17.68
2017-05-22T05:56:35.163Z,17.75
2017-05-22T05:57:44.130Z,17.68
2017-05-22T05:58:53.437Z,17.64
2017-05-22T06:00:02.592Z,17.77
2017-05-22T06:01:11.581Z,17.75
2017-05-22T06:02:20.792Z,17.86
2017-05-22T06:03:30.080Z,17.82
2017-05-22T06:04:39.040Z,17.89
2017-05-22T06:05:48.001Z,17.99
2017-05-22T06:06:56.963Z,17.99
2017-05-22T06:08:06.174Z,18.05
2017-05-22T06:09:15.470Z,18.15
2017-05-22T06:10:24.432Z,18.2
2017-05-22T06:11:33.394Z,18.14
2017-05-22T06:12:42.357Z,18.21
2017-05-22T06:13:51.570Z,18.12
2017-05-22T06:15:00.536Z,18.17
2017-05-22T06:16:09.582Z,18.29
2017-05-22T06:17:18.543Z,18.3
2017-05-22T06:18:27.501Z,18.39
2017-05-22T06:19:36.718Z,18.27
2017-05-22T06:20:45.676Z,18.33
2017-05-22T06:21:54.632Z,18.35
2017-05-22T06:23:03.594Z,18.35
2017-05-22T06:24:12.560Z,18.35
2017-05-22T06:25:21.776Z,18.32
2017-05-22T06:26:30.734Z,18.41
2017-05-22T06:27:39.903Z,18.37
2017-05-22T06:28:48.867Z,18.44
2017-05-22T06:29:57.953Z,18.39
2017-05-22T06:31:07.160Z,18.44
2017-05-22T06:32:16.118Z,18.37
2017-05-22T06:33:25.074Z,18.41
2017-05-22T06:34:34.046Z,18.39
2017-05-22T06:35:43.015Z,18.37
2017-05-22T06:36:52.336Z,18.35
2017-05-22T06:38:01.330Z,18.42
2017-05-22T06:39:10.621Z,18.42
2017-05-22T06:40:19.576Z,18.37
2017-05-22T06:41:28.626Z,18.5
2017-05-22T06:42:37.849Z,18.54
2017-05-22T06:43:46.818Z,18.52
2017-05-22T06:44:56.364Z,18.63
2017-05-22T06:46:05.644Z,18.62
2017-05-22T06:47:14.859Z,18.65
2017-05-22T06:48:24.173Z,18.69
2017-05-22T06:49:33.158Z,18.66
2017-05-22T06:50:42.260Z,18.78
2017-05-22T06:51:51.245Z,18.9
2017-05-22T06:53:00.205Z,18.92
2017-05-22T06:54:09.505Z,18.91
2017-05-22T06:55:18.627Z,18.92
2017-05-22T06:56:27.593Z,19.02
2017-05-22T06:57:36.756Z,18.98
2017-05-22T06:58:45.817Z,19.04
2017-05-22T06:59:55.657Z,18.99
2017-05-22T07:01:04.621Z,19
2017-05-22T07:02:13.744Z,19.04
2017-05-22T07:03:22.712Z,19.16
2017-05-22T07:04:31.704Z,19.13
2017-05-22T07:05:41.008Z,19.16
2017-05-22T07:06:50.166Z,19.14
2017-05-22T07:07:59.234Z,19.22
2017-05-22T07:09:08.282Z,19.26
2017-05-22T07:10:17.778Z,19.23
2017-05-22T07:11:26.988Z,19.26
2017-05-22T07:12:35.973Z,19.19
2017-05-22T07:13:45.049Z,19.32
2017-05-22T07:14:54.337Z,19.33
2017-05-22T07:16:03.475Z,19.29
2017-05-22T07:17:12.773Z,19.37
2017-05-22T07:18:21.737Z,19.41
2017-05-22T07:19:30.960Z,19.44
2017-05-22T07:20:39.920Z,19.44
2017-05-22T07:21:48.879Z,19.47
2017-05-22T07:22:58.169Z,19.37
2017-05-22T07:24:07.184Z,19.5
2017-05-22T07:25:16.831Z,19.48
2017-05-22T07:26:26.354Z,19.59
2017-05-22T07:27:35.396Z,19.65
2017-05-22T07:28:44.701Z,19.59
2017-05-22T07:29:53.661Z,19.65
2017-05-22T07:31:02.669Z,19.71
2017-05-22T07:32:11.763Z,19.62
2017-05-22T07:33:20.786Z,19.68
2017-05-22T07:34:30.131Z,19.63
2017-05-22T07:35:39.127Z,19.68
2017-05-22T07:36:48.293Z,19.69
2017-05-22T07:37:57.257Z,19.73
2017-05-22T07:39:06.359Z,19.68
2017-05-22T07:40:15.589Z,19.65
2017-05-22T07:41:24.551Z,19.62
2017-05-22T07:42:33.694Z,19.65
2017-05-22T07:43:42.828Z,19.65
2017-05-22T07:44:51.924Z,19.63
2017-05-22T07:46:01.139Z,19.65
2017-05-22T07:47:10.103Z,19.73
2017-05-22T07:48:19.069Z,19.63
2017-05-22T07:49:28.270Z,19.77
2017-05-22T07:50:37.253Z,19.66
2017-05-22T07:51:46.535Z,19.76
2017-05-22T07:52:55.516Z,19.76
2017-05-22T07:54:04.636Z,19.78
2017-05-22T07:55:13.600Z,19.77
2017-05-22T07:56:22.561Z,19.73
2017-05-22T07:57:31.777Z,19.83
2017-05-22T07:58:40.746Z,19.84
2017-05-22T07:59:49.709Z,19.94
2017-05-22T08:00:58.674Z,19.91
2017-05-22T08:02:07.639Z,20.01
2017-05-22T08:03:16.852Z,20.1
2017-05-22T08:04:25.818Z,20.03
2017-05-22T08:05:34.781Z,20.06
2017-05-22T08:06:43.745Z,20.03
2017-05-22T08:07:52.710Z,20.06
2017-05-22T08:09:01.923Z,20.08
2017-05-22T08:10:10.896Z,20.16
2017-05-22T08:11:19.856Z,20.2
2017-05-22T08:12:28.817Z,20.24
2017-05-22T08:13:37.782Z,20.26
2017-05-22T08:14:47.045Z,20.21
2017-05-22T08:15:56.009Z,20.18
2017-05-22T08:17:04.968Z,20.17
2017-05-22T08:18:13.931Z,20.28
2017-05-22T08:19:22.890Z,20.33
2017-05-22T08:20:32.107Z,20.42
2017-05-22T08:21:41.138Z,20.38
2017-05-22T08:22:50.112Z,20.48
2017-05-22T08:23:59.145Z,20.5
2017-05-22T08:25:08.140Z,20.5
2017-05-22T08:26:17.351Z,20.61
2017-05-22T08:27:26.319Z,20.58
2017-05-22T08:28:35.278Z,20.62
2017-05-22T08:29:44.242Z,20.74
2017-05-22T08:30:53.203Z,20.76
2017-05-22T08:32:02.415Z,20.77
2017-05-22T08:33:11.378Z,20.85
2017-05-22T08:34:20.346Z,20.87
2017-05-22T08:35:29.308Z,20.91
2017-05-22T08:36:38.273Z,20.95
2017-05-22T08:37:47.484Z,20.99
2017-05-22T08:38:56.530Z,20.98
2017-05-22T08:40:05.495Z,21.1
2017-05-22T08:41:14.461Z,21.07
2017-05-22T08:42:23.432Z,21.1
2017-05-22T08:43:32.668Z,21.13
2017-05-22T08:44:41.630Z,21.16
2017-05-22T08:45:50.595Z,21.16
2017-05-22T08:47:00.202Z,21.17
2017-05-22T08:48:09.167Z,21.29
2017-05-22T08:49:18.380Z,21.32
2017-05-22T08:50:27.490Z,21.4
2017-05-22T08:51:36.454Z,21.32
2017-05-22T08:52:45.418Z,21.21
2017-05-22T08:53:54.380Z,21.24
2017-05-22T08:55:03.600Z,21.25
2017-05-22T08:56:12.657Z,21.27
2017-05-22T08:57:21.622Z,21.34
2017-05-22T08:58:30.588Z,21.32
2017-05-22T08:59:39.551Z,21.44
2017-05-22T09:00:48.767Z,21.42
2017-05-22T09:01:57.735Z,21.32
2017-05-22T09:03:06.698Z,21.34
2017-05-22T09:04:15.666Z,21.38
2017-05-22T09:05:26.739Z,21.29
2017-05-22T09:06:37.135Z,21.35
2017-05-22T09:07:46.120Z,21.37
2017-05-22T09:08:55.086Z,21.38
2017-05-22T09:10:04.143Z,21.4
2017-05-22T09:11:13.168Z,21.46
2017-05-22T09:12:22.508Z,21.53
2017-05-22T09:13:31.469Z,21.54
2017-05-22T09:14:40.429Z,21.56
2017-05-22T09:15:49.394Z,21.54
2017-05-22T09:16:58.363Z,21.54
2017-05-22T09:18:07.662Z,21.43
2017-05-22T09:19:16.638Z,21.35
2017-05-22T09:20:25.596Z,21.32
2017-05-22T09:21:34.560Z,21.4
2017-05-22T09:22:43.529Z,21.43
2017-05-22T09:23:52.739Z,21.46
2017-05-22T09:25:01.707Z,21.44
2017-05-22T09:26:11.079Z,21.42
2017-05-22T09:27:20.045Z,21.38
2017-05-22T09:28:29.014Z,21.22
2017-05-22T09:29:38.227Z,21.21
2017-05-22T09:30:47.193Z,21.27
2017-05-22T09:31:56.154Z,21.17
2017-05-22T09:33:05.118Z,21.16
2017-05-22T09:34:14.081Z,21.14
2017-05-22T09:35:23.298Z,21.07
2017-05-22T09:36:32.261Z,21.03
2017-05-22T09:37:41.231Z,20.91
2017-05-22T09:38:50.268Z,20.92
2017-05-22T09:39:59.234Z,20.85
2017-05-22T09:41:08.458Z,20.94
2017-05-22T09:42:17.433Z,20.95
2017-05-22T09:43:26.399Z,21.09
2017-05-22T09:44:35.373Z,21.09
2017-05-22T09:45:44.336Z,21.1
2017-05-22T09:46:53.551Z,21.07
2017-05-22T09:48:02.522Z,21.1
2017-05-22T09:49:11.484Z,20.98
2017-05-22T09:50:20.771Z,20.89
2017-05-22T09:51:29.737Z,20.97
2017-05-22T09:52:38.948Z,20.98
2017-05-22T09:53:47.908Z,21.01
2017-05-22T09:54:56.868Z,21.06
2017-05-22T09:56:05.837Z,21.21
2017-05-22T09:57:15.129Z,21.24
2017-05-22T09:58:24.433Z,21.34
2017-05-22T09:59:33.402Z,21.34
2017-05-22T10:00:42.368Z,21.46
2017-05-22T10:01:51.383Z,21.46
2017-05-22T10:03:00.343Z,21.52
2017-05-22T10:04:09.560Z,21.64
2017-05-22T10:05:18.611Z,21.62
2017-05-22T10:06:27.572Z,21.74
2017-05-22T10:07:36.627Z,21.61
2017-05-22T10:08:45.665Z,21.8
2017-05-22T10:09:55.207Z,21.77
2017-05-22T10:11:04.174Z,21.83
2017-05-22T10:12:13.140Z,21.94
2017-05-22T10:13:22.873Z,21.99
2017-05-22T10:14:31.983Z,22.07
2017-05-22T10:15:41.206Z,22.22
2017-05-22T10:16:50.170Z,22.21
2017-05-22T10:17:59.136Z,22.35
2017-05-22T10:19:08.096Z,22.45
2017-05-22T10:20:17.154Z,22.47
2017-05-22T10:21:26.364Z,22.49
2017-05-22T10:22:35.332Z,22.46
2017-05-22T10:23:44.296Z,22.42
2017-05-22T10:24:53.268Z,22.51
2017-05-22T10:26:02.319Z,22.55
2017-05-22T10:27:11.536Z,22.55
2017-05-22T10:28:20.502Z,22.45
2017-05-22T10:29:29.468Z,22.52
2017-05-22T10:30:38.434Z,22.58
2017-05-22T10:31:47.400Z,22.64
2017-05-22T10:32:56.680Z,22.68
2017-05-22T10:34:05.650Z,22.75
2017-05-22T10:35:14.616Z,22.8
2017-05-22T10:36:23.672Z,22.67
2017-05-22T10:37:32.727Z,22.76
2017-05-22T10:38:41.946Z,22.85
2017-05-22T10:39:50.911Z,22.91
2017-05-22T10:40:59.879Z,22.88
2017-05-22T10:42:08.840Z,22.92
2017-05-22T10:43:17.798Z,22.98
2017-05-22T10:44:27.009Z,22.88
2017-05-22T10:45:35.970Z,22.79
2017-05-22T10:46:44.940Z,22.68
2017-05-22T10:47:53.921Z,22.76
2017-05-22T10:49:02.958Z,22.7
2017-05-22T10:50:12.223Z,22.64
2017-05-22T10:51:21.192Z,22.58
2017-05-22T10:52:30.477Z,22.54
2017-05-22T10:53:39.540Z,22.49
2017-05-22T10:54:48.622Z,22.33
2017-05-22T10:55:57.840Z,22.33
2017-05-22T10:57:06.805Z,22.35
2017-05-22T10:58:15.942Z,22.28
2017-05-22T10:59:24.935Z,22.2
2017-05-22T11:00:33.897Z,22.18
2017-05-22T11:01:43.286Z,22.17
2017-05-22T11:02:52.250Z,22.18
2017-05-22T11:04:01.222Z,22.21
2017-05-22T11:05:10.519Z,22.31
2017-05-22T11:06:19.489Z,22.4
2017-05-22T11:07:28.705Z,22.35
2017-05-22T11:08:37.667Z,22.47
2017-05-22T11:09:46.636Z,22.64
2017-05-22T11:10:55.965Z,22.58
2017-05-22T11:12:05.015Z,22.73
2017-05-22T11:13:14.233Z,22.72
2017-05-22T11:14:23.204Z,22.65
2017-05-22T11:15:32.170Z,22.75
2017-05-22T11:16:41.133Z,22.75
2017-05-22T11:17:50.095Z,22.79
2017-05-22T11:18:59.308Z,22.6
2017-05-22T11:20:08.274Z,22.52
2017-05-22T11:21:17.250Z,22.47
2017-05-22T11:22:26.224Z,22.49
2017-05-22T11:23:35.513Z,22.46
2017-05-22T11:24:44.734Z,22.54
2017-05-22T11:25:53.701Z,22.68
2017-05-22T11:27:02.667Z,22.73
2017-05-22T11:28:11.630Z,22.75
2017-05-22T11:29:20.595Z,22.7
2017-05-22T11:30:29.811Z,22.8
2017-05-22T11:31:38.778Z,22.85
2017-05-22T11:32:47.749Z,22.8
2017-05-22T11:33:56.716Z,22.85
2017-05-22T11:35:05.679Z,22.83
2017-05-22T11:36:14.943Z,22.86
2017-05-22T11:37:23.911Z,22.92
2017-05-22T11:38:32.947Z,22.88
2017-05-22T11:39:41.923Z,22.91
2017-05-22T11:40:50.895Z,23
2017-05-22T11:42:00.159Z,22.95
2017-05-22T11:43:09.125Z,22.9
2017-05-22T11:44:18.089Z,22.9
2017-05-22T11:45:27.059Z,22.88
2017-05-22T11:46:36.346Z,22.95
2017-05-22T11:47:45.565Z,22.95
2017-05-22T11:48:54.538Z,23.04
2017-05-22T11:50:03.508Z,23.13
2017-05-22T11:51:12.476Z,22.95
2017-05-22T11:52:21.441Z,22.91
2017-05-22T11:53:30.658Z,23.01
2017-05-22T11:54:39.625Z,23.05
2017-05-22T11:55:48.590Z,23.12
2017-05-22T11:56:57.624Z,22.91
2017-05-22T11:58:06.591Z,23.02
2017-05-22T11:59:15.804Z,23.01
2017-05-22T12:00:25.554Z,22.94
2017-05-22T12:01:34.753Z,23.01
2017-05-22T12:02:43.721Z,23
2017-05-22T12:03:52.692Z,23.04
2017-05-22T12:05:02.112Z,23.01
2017-05-22T12:06:11.316Z,23.04
2017-05-22T12:07:20.427Z,23.05
2017-05-22T12:08:29.394Z,23.02
2017-05-22T12:09:38.365Z,22.94
2017-05-22T12:10:47.577Z,22.91
2017-05-22T12:11:56.542Z,23.01
2017-05-22T12:13:05.511Z,23.09
2017-05-22T12:14:14.479Z,23.02
2017-05-22T12:15:23.443Z,22.91
2017-05-22T12:16:32.668Z,23.02
2017-05-22T12:17:41.633Z,23.12
2017-05-22T12:18:50.597Z,23.02
2017-05-22T12:19:59.572Z,23.01
2017-05-22T12:21:08.543Z,23.01
2017-05-22T12:22:17.760Z,23.12
2017-05-22T12:23:26.726Z,23.07
2017-05-22T12:24:36.021Z,23.13
2017-05-22T12:25:45.074Z,23.13
2017-05-22T12:26:54.044Z,23.16
2017-05-22T12:28:03.357Z,23.16
2017-05-22T12:29:12.322Z,23.17
2017-05-22T12:30:21.292Z,23.16
2017-05-22T12:31:30.265Z,23.25
2017-05-22T12:32:39.233Z,23.25
2017-05-22T12:33:48.523Z,23.27
2017-05-22T12:34:57.487Z,23.36
2017-05-22T12:36:06.453Z,23.27
2017-05-22T12:37:15.424Z,23.35
2017-05-22T12:38:24.389Z,23.35
2017-05-22T12:39:33.603Z,23.39
2017-05-22T12:40:42.568Z,23.36
2017-05-22T12:41:51.569Z,23.38
2017-05-22T12:43:00.625Z,23.5
2017-05-22T12:44:09.590Z,23.42
2017-05-22T12:45:18.806Z,23.36
2017-05-22T12:46:28.091Z,23.39
2017-05-22T12:47:37.057Z,23.54
2017-05-22T12:48:46.023Z,23.54
2017-05-22T12:49:55.075Z,23.6
2017-05-22T12:51:04.290Z,23.54
2017-05-22T12:52:13.252Z,23.54
2017-05-22T12:53:22.269Z,23.58
2017-05-22T12:54:31.237Z,23.58
2017-05-22T12:55:40.204Z,23.6
2017-05-22T12:56:49.421Z,23.7
2017-05-22T12:57:58.480Z,23.79
2017-05-22T12:59:07.457Z,23.8
2017-05-22T13:00:16.421Z,23.79
2017-05-22T13:01:25.389Z,23.83
2017-05-22T13:02:34.630Z,23.84
2017-05-22T13:03:44.012Z,23.84
2017-05-22T13:04:53.015Z,23.76
2017-05-22T13:06:01.989Z,23.7
2017-05-22T13:07:10.952Z,23.8
2017-05-22T13:08:20.164Z,23.8
2017-05-22T13:09:29.132Z,23.78
2017-05-22T13:10:38.098Z,23.75
2017-05-22T13:11:47.058Z,23.78
2017-05-22T13:12:56.023Z,23.79
2017-05-22T13:14:05.240Z,23.66
2017-05-22T13:15:14.219Z,23.7
2017-05-22T13:16:23.181Z,23.61
2017-05-22T13:17:32.150Z,23.48
2017-05-22T13:18:41.148Z,23.46
2017-05-22T13:19:50.366Z,23.54
2017-05-22T13:20:59.345Z,23.58
2017-05-22T13:22:08.314Z,23.6
2017-05-22T13:23:17.333Z,23.58
2017-05-22T13:24:26.346Z,23.47
2017-05-22T13:25:35.578Z,23.6
2017-05-22T13:26:44.547Z,23.5
2017-05-22T13:27:53.644Z,23.58
2017-05-22T13:29:02.672Z,23.65
2017-05-22T13:30:11.638Z,23.63
2017-05-22T13:31:20.856Z,23.75
2017-05-22T13:32:29.819Z,23.76
2017-05-22T13:33:38.803Z,23.9
2017-05-22T13:34:48.542Z,23.73
2017-05-22T13:35:58.247Z,23.83
2017-05-22T13:37:07.719Z,23.84
2017-05-22T13:38:16.925Z,23.87
2017-05-22T13:39:26.026Z,23.85
2017-05-22T13:40:35.267Z,23.85
2017-05-22T13:41:44.482Z,23.83
2017-05-22T13:42:53.911Z,23.79
2017-05-22T13:44:03.064Z,23.84
2017-05-22T13:45:12.175Z,23.8
2017-05-22T13:46:21.304Z,23.83
2017-05-22T13:47:30.489Z,23.8
2017-05-22T13:48:40.163Z,23.88
2017-05-22T13:49:49.131Z,23.9
2017-05-22T13:50:58.222Z,23.9
2017-05-22T13:52:07.533Z,23.88
2017-05-22T13:53:16.501Z,23.9
2017-05-22T13:54:25.715Z,23.87
2017-05-22T13:55:34.753Z,23.88
2017-05-22T13:56:43.841Z,23.94
2017-05-22T13:57:52.805Z,23.95
2017-05-22T13:59:01.774Z,23.87
2017-05-22T14:00:11.076Z,24
2017-05-22T14:01:20.040Z,24.03
2017-05-22T14:02:29.005Z,24.06
2017-05-22T14:03:37.971Z,24
2017-05-22T14:04:46.945Z,24.09
2017-05-22T14:05:56.535Z,24.06
2017-05-22T14:07:05.501Z,24.08
2017-05-22T14:08:14.534Z,24.12
2017-05-22T14:09:23.575Z,24.13
2017-05-22T14:10:32.545Z,24.12
2017-05-22T14:11:41.884Z,24.09
2017-05-22T14:12:50.874Z,24.08
2017-05-22T14:13:59.853Z,24.05
2017-05-22T14:15:08.821Z,23.98
2017-05-22T14:16:18.112Z,23.88
2017-05-22T14:17:27.336Z,23.93
2017-05-22T14:18:36.308Z,23.9
2017-05-22T14:19:45.359Z,23.88
2017-05-22T14:20:54.329Z,23.88
2017-05-22T14:22:03.296Z,23.9
2017-05-22T14:23:12.834Z,23.93
2017-05-22T14:24:21.805Z,23.87
2017-05-22T14:25:30.770Z,23.84
2017-05-22T14:26:39.744Z,23.84
2017-05-22T14:27:48.726Z,23.68
2017-05-22T14:28:57.951Z,23.63
2017-05-22T14:30:07.007Z,23.61
2017-05-22T14:31:15.969Z,23.48
2017-05-22T14:32:24.932Z,23.43
2017-05-22T14:33:33.900Z,23.38
2017-05-22T14:34:43.119Z,23.32
2017-05-22T14:35:52.093Z,23.31
2017-05-22T14:37:01.057Z,23.31
2017-05-22T14:38:10.021Z,23.27
2017-05-22T14:39:18.990Z,23.17
2017-05-22T14:40:28.201Z,23.16
2017-05-22T14:41:37.169Z,23.07
2017-05-22T14:42:46.134Z,23.13
2017-05-22T14:43:55.192Z,23.04
2017-05-22T14:45:04.203Z,23.07
2017-05-22T14:46:13.422Z,22.94
2017-05-22T14:47:22.389Z,22.91
2017-05-22T14:48:31.355Z,22.91
2017-05-22T14:49:40.329Z,22.94
2017-05-22T14:50:49.296Z,22.98
2017-05-22T14:51:58.513Z,22.88
2017-05-22T14:53:07.484Z,22.86
2017-05-22T14:54:16.465Z,22.76